地図

経路データ

SID SEASON NUMBER BASIN SUBBASIN NAME ISO_TIME NATURE LAT LON WMO_WIND WMO_PRES WMO_AGENCY TRACK_TYPE DIST2LAND LANDFALL IFLAG USA_AGENCY USA_ATCF_ID USA_LAT USA_LON USA_RECORD USA_STATUS USA_WIND USA_PRES USA_SSHS USA_R34_NE USA_R34_SE USA_R34_SW USA_R34_NW USA_R50_NE USA_R50_SE USA_R50_SW USA_R50_NW USA_R64_NE USA_R64_SE USA_R64_SW USA_R64_NW USA_POCI USA_ROCI USA_RMW USA_EYE TOKYO_LAT TOKYO_LON TOKYO_GRADE TOKYO_WIND TOKYO_PRES TOKYO_R50_DIR TOKYO_R50_LONG TOKYO_R50_SHORT TOKYO_R30_DIR TOKYO_R30_LONG TOKYO_R30_SHORT TOKYO_LAND CMA_LAT CMA_LON CMA_CAT CMA_WIND CMA_PRES HKO_LAT HKO_LON HKO_CAT HKO_WIND HKO_PRES NEWDELHI_LAT NEWDELHI_LON NEWDELHI_GRADE NEWDELHI_WIND NEWDELHI_PRES NEWDELHI_CI NEWDELHI_DP NEWDELHI_POCI REUNION_LAT REUNION_LON REUNION_TYPE REUNION_WIND REUNION_PRES REUNION_TNUM REUNION_CI REUNION_RMW REUNION_R34_NE REUNION_R34_SE REUNION_R34_SW REUNION_R34_NW REUNION_R50_NE REUNION_R50_SE REUNION_R50_SW REUNION_R50_NW REUNION_R64_NE REUNION_R64_SE REUNION_R64_SW REUNION_R64_NW BOM_LAT BOM_LON BOM_TYPE BOM_WIND BOM_PRES BOM_TNUM BOM_CI BOM_RMW BOM_R34_NE BOM_R34_SE BOM_R34_SW BOM_R34_NW BOM_R50_NE BOM_R50_SE BOM_R50_SW BOM_R50_NW BOM_R64_NE BOM_R64_SE BOM_R64_SW BOM_R64_NW BOM_ROCI BOM_POCI BOM_EYE BOM_POS_METHOD BOM_PRES_METHOD NADI_LAT NADI_LON NADI_CAT NADI_WIND NADI_PRES WELLINGTON_LAT WELLINGTON_LON WELLINGTON_WIND WELLINGTON_PRES DS824_LAT DS824_LON DS824_STAGE DS824_WIND DS824_PRES TD9636_LAT TD9636_LON TD9636_STAGE TD9636_WIND TD9636_PRES TD9635_LAT TD9635_LON TD9635_WIND TD9635_PRES TD9635_ROCI NEUMANN_LAT NEUMANN_LON NEUMANN_CLASS NEUMANN_WIND NEUMANN_PRES MLC_LAT MLC_LON MLC_CLASS MLC_WIND MLC_PRES USA_GUST BOM_GUST BOM_GUST_PER REUNION_GUST REUNION_GUST_PER USA_SEAHGT USA_SEARAD_NE USA_SEARAD_SE USA_SEARAD_SW USA_SEARAD_NW STORM_SPEED STORM_DIR
1896071S26080 1896 8 SI MM NOT_NAMED 1896-03-11 06:00:00 NR -26.1000 80.3000 spur-split 2384 2384 _____O________ -1 -26.1000 80.3000 99 9.90000 1 294
1896071S26080 1896 8 SI MM NOT_NAMED 1896-03-11 09:00:00 NR -26.0841 80.2601 spur-split 2384 2374 _____P________ -1 -26.0841 80.2601 99 1 289
1896071S26080 1896 8 SI MM NOT_NAMED 1896-03-11 12:00:00 NR -26.0781 80.2205 spur-split 2374 2374 _____P________ -1 -26.0781 80.2205 99 1 264
1896071S26080 1896 8 SI MM NOT_NAMED 1896-03-11 15:00:00 NR -26.0918 80.1813 spur-split 2374 2364 _____P________ -1 -26.0918 80.1813 99 1 230
1896071S26080 1896 8 SI MM NOT_NAMED 1896-03-11 18:00:00 NR -26.1350 80.1429 spur-split 2364 2364 _____P________ -1 -26.1350 80.1429 99 1 208
1896071S26080 1896 8 SI MM NOT_NAMED 1896-03-11 21:00:00 NR -26.2175 80.1053 spur-split 2367 2367 _____P________ -1 -26.2175 80.1053 99 2 197
1896071S26080 1896 8 SI MM NOT_NAMED 1896-03-12 00:00:00 NR -26.3493 80.0689 spur-split 2369 2361 _____P________ -1 -26.3493 80.0689 99 3 193
1896071S26080 1896 8 SI MM NOT_NAMED 1896-03-12 03:00:00 NR -26.5402 80.0337 spur-split 2364 2364 _____P________ -1 -26.5402 80.0337 99 5 187
1896071S26080 1896 8 SI MM NOT_NAMED 1896-03-12 06:00:00 NR -26.8000 80.0000 reunion spur-split 2371 2371 _____O________ -1 -26.8000 80.0000 99 9.90000 6 185
1896071S26080 1896 8 SI MM NOT_NAMED 1896-03-12 09:00:00 NR -27.1350 79.9683 spur-split 2379 2377 _____P________ -1 -27.1350 79.9683 99 7 184
1896071S26080 1896 8 SI MM NOT_NAMED 1896-03-12 12:00:00 NR -27.5371 79.9405 spur-split 2380 2380 _____P________ -1 -27.5371 79.9405 99 9 183
1896071S26080 1896 8 SI MM NOT_NAMED 1896-03-12 15:00:00 NR -27.9945 79.9192 spur-split 2395 2395 _____P________ -1 -27.9945 79.9192 99 10 183
1896071S26080 1896 8 SI MM NOT_NAMED 1896-03-12 18:00:00 NR -28.4955 79.9069 spur-split 2411 2374 _____P________ -1 -28.4955 79.9069 99 10 181
1896071S26080 1896 8 SI MM NOT_NAMED 1896-03-12 21:00:00 NR -29.0282 79.9061 spur-split 2374 2321 _____P________ -1 -29.0282 79.9061 99 11 179
1896071S26080 1896 8 SI MM NOT_NAMED 1896-03-13 00:00:00 NR -29.5810 79.9195 spur-split 2311 2257 _____P________ -1 -29.5810 79.9195 99 11 178
1896071S26080 1896 8 SI MM NOT_NAMED 1896-03-13 03:00:00 NR -30.1422 79.9499 spur-split 2257 2197 _____P________ -1 -30.1422 79.9499 99 11 176
1896071S26080 1896 8 SI MM NOT_NAMED 1896-03-13 06:00:00 NR -30.7000 80.0000 reunion spur-split 2197 2147 _____O________ -1 -30.7000 80.0000 99 9.90000 11 175
1896071S26080 1896 8 SI MM NOT_NAMED 1896-03-13 09:00:00 NR -31.2049 80.0633 spur-split 2147 2094 _____P________ -1 -31.2049 80.0633 99 10 173
1896071S26080 1896 8 SI MM NOT_NAMED 1896-03-13 12:00:00 NR -31.7144 80.1462 spur-split 2094 2045 _____P________ -1 -31.7144 80.1462 99 10 171
1896071S26080 1896 8 SI MM NOT_NAMED 1896-03-13 15:00:00 NR -32.2271 80.2477 spur-split 2045 1996 _____P________ -1 -32.2271 80.2477 99 10 170
1896071S26080 1896 8 SI MM NOT_NAMED 1896-03-13 18:00:00 NR -32.7420 80.3668 spur-split 2000 1951 _____P________ -1 -32.7420 80.3668 99 11 168
1896071S26080 1896 8 SI MM NOT_NAMED 1896-03-13 21:00:00 NR -33.2579 80.5026 spur-split 1941 1903 _____P________ -1 -33.2579 80.5026 99 11 167
1896071S26080 1896 8 SI MM NOT_NAMED 1896-03-14 00:00:00 NR -33.7737 80.6541 spur-split 1897 1849 _____P________ -1 -33.7737 80.6541 99 11 166
1896071S26080 1896 8 SI MM NOT_NAMED 1896-03-14 03:00:00 NR -34.2881 80.8202 spur-split 1849 1806 _____P________ -1 -34.2881 80.8202 99 11 164
1896071S26080 1896 8 SI MM NOT_NAMED 1896-03-14 06:00:00 NR -34.8000 81.0000 spur-split 1806 1764 _____O________ -1 -34.8000 81.0000 99 9.90000 11 163
1896071S26080 1896 8 SI MM NOT_NAMED 1896-03-14 09:00:00 NR -35.3682 81.2119 spur-split 1754 1713 _____P________ -1 -35.3682 81.2119 99 12 162
1896071S26080 1896 8 SI MM NOT_NAMED 1896-03-14 12:00:00 NR -35.9421 81.4445 spur-split 1713 1667 _____P________ -1 -35.9421 81.4445 99 12 161
1896071S26080 1896 8 SI MM NOT_NAMED 1896-03-14 15:00:00 NR -36.5091 81.6898 spur-split 1667 1627 _____P________ -1 -36.5091 81.6898 99 12 160
1896071S26080 1896 8 SI MM NOT_NAMED 1896-03-14 18:00:00 NR -37.0566 81.9394 spur-split 1618 1589 _____P________ -1 -37.0566 81.9394 99 11 160
1896071S26080 1896 8 SI MM NOT_NAMED 1896-03-14 21:00:00 NR -37.5719 82.1847 spur-split 1584 1556 _____P________ -1 -37.5719 82.1847 99 11 159
1896071S26080 1896 8 SI MM NOT_NAMED 1896-03-15 00:00:00 NR -38.0425 82.4163 spur-split 1556 1529 _____P________ -1 -38.0425 82.4163 99 10 159
1896071S26080 1896 8 SI MM NOT_NAMED 1896-03-15 03:00:00 NR -38.4560 82.6247 spur-split 1520 1503 _____P________ -1 -38.4560 82.6247 99 8 158
1896071S26080 1896 8 SI MM NOT_NAMED 1896-03-15 06:00:00 NR -38.8000 82.8000 spur-split 1503 1482 _____O________ -1 -38.8000 82.8000 99 9.90000 7 158
1896071S26080 1896 8 SI MM NOT_NAMED 1896-03-15 09:00:00 NR -39.0659 82.9347 spur-split 1482 1469 _____P________ -1 -39.0659 82.9347 99 5 159
1896071S26080 1896 8 SI MM NOT_NAMED 1896-03-15 12:00:00 NR -39.2603 83.0310 spur-split 1469 1466 _____P________ -1 -39.2603 83.0310 99 4 159
1896071S26080 1896 8 SI MM NOT_NAMED 1896-03-15 15:00:00 NR -39.3936 83.0941 spur-split 1466 1457 _____P________ -1 -39.3936 83.0941 99 2 159
1896071S26080 1896 8 SI MM NOT_NAMED 1896-03-15 18:00:00 NR -39.4759 83.1291 spur-split 1457 1457 _____P________ -1 -39.4759 83.1291 99 1 161
1896071S26080 1896 8 SI MM NOT_NAMED 1896-03-15 21:00:00 NR -39.5176 83.1416 spur-split 1457 1457 _____P________ -1 -39.5176 83.1416 99 1 160
1896071S26080 1896 8 SI MM NOT_NAMED 1896-03-16 00:00:00 NR -39.5287 83.1371 spur-split 1457 1457 _____P________ -1 -39.5287 83.1371 99 0 0
1896071S26080 1896 8 SI MM NOT_NAMED 1896-03-16 03:00:00 NR -39.5194 83.1214 spur-split 1457 1457 _____P________ -1 -39.5194 83.1214 99 0 301
1896071S26080 1896 8 SI MM NOT_NAMED 1896-03-16 06:00:00 NR -39.5000 83.1000 spur-split 1457 _____O________ -1 -39.5000 83.1000 99 9.90000 1 0

IBTrACS Databaseについて

本データベースは、米国NOAAが公開する1842年以降の世界の熱帯低気圧のベストトラックデータアーカイブInternational Best Track Archive for Climate Stewardship (IBTrACS)を、ウェブで閲覧しやすい形式に変換したものです。

最終更新日:2021-10-21